sensor_id;sensor_type;location;lat;lon;timestamp;temperature;humidity
16479;DHT22;8350;52.316;10.530;2023-08-20T00:01:57;21.40;99.90
16479;DHT22;8350;52.316;10.530;2023-08-20T00:04:26;21.40;99.90
16479;DHT22;8350;52.316;10.530;2023-08-20T00:06:54;21.40;99.90
16479;DHT22;8350;52.316;10.530;2023-08-20T00:09:23;21.40;99.90
16479;DHT22;8350;52.316;10.530;2023-08-20T00:11:52;21.40;99.90
16479;DHT22;8350;52.316;10.530;2023-08-20T00:14:19;21.40;99.90
16479;DHT22;8350;52.316;10.530;2023-08-20T00:16:48;21.30;99.90
16479;DHT22;8350;52.316;10.530;2023-08-20T00:19:16;21.40;99.90
16479;DHT22;8350;52.316;10.530;2023-08-20T00:21:43;21.40;99.90
16479;DHT22;8350;52.316;10.530;2023-08-20T00:24:12;21.40;99.90
16479;DHT22;8350;52.316;10.530;2023-08-20T00:26:39;21.40;99.90
16479;DHT22;8350;52.316;10.530;2023-08-20T00:29:06;21.40;99.90
16479;DHT22;8350;52.316;10.530;2023-08-20T00:31:36;21.40;99.90
16479;DHT22;8350;52.316;10.530;2023-08-20T00:34:05;21.40;99.90
16479;DHT22;8350;52.316;10.530;2023-08-20T00:36:32;21.40;99.90
16479;DHT22;8350;52.316;10.530;2023-08-20T00:38:59;21.40;99.90
16479;DHT22;8350;52.316;10.530;2023-08-20T00:41:26;21.40;99.90
16479;DHT22;8350;52.316;10.530;2023-08-20T00:43:53;21.40;99.90
16479;DHT22;8350;52.316;10.530;2023-08-20T00:46:24;21.40;99.90
16479;DHT22;8350;52.316;10.530;2023-08-20T00:48:51;21.40;99.90
16479;DHT22;8350;52.316;10.530;2023-08-20T00:51:20;21.40;99.90
16479;DHT22;8350;52.316;10.530;2023-08-20T00:53:47;21.40;99.90
16479;DHT22;8350;52.316;10.530;2023-08-20T00:56:13;21.40;99.90
16479;DHT22;8350;52.316;10.530;2023-08-20T00:58:40;21.40;99.90
16479;DHT22;8350;52.316;10.530;2023-08-20T01:01:07;21.40;99.90
16479;DHT22;8350;52.316;10.530;2023-08-20T01:03:35;21.30;99.90
16479;DHT22;8350;52.316;10.530;2023-08-20T01:06:29;21.30;99.90
16479;DHT22;8350;52.316;10.530;2023-08-20T01:09:03;21.30;99.90
16479;DHT22;8350;52.316;10.530;2023-08-20T01:11:38;21.30;99.90
16479;DHT22;8350;52.316;10.530;2023-08-20T01:14:14;21.30;99.90
16479;DHT22;8350;52.316;10.530;2023-08-20T01:16:55;21.30;99.90
16479;DHT22;8350;52.316;10.530;2023-08-20T01:19:22;21.30;99.90
16479;DHT22;8350;52.316;10.530;2023-08-20T01:22:05;21.20;99.90
16479;DHT22;8350;52.316;10.530;2023-08-20T01:24:48;21.30;99.90
16479;DHT22;8350;52.316;10.530;2023-08-20T01:27:31;21.30;99.90
16479;DHT22;8350;52.316;10.530;2023-08-20T01:30:06;21.30;99.90
16479;DHT22;8350;52.316;10.530;2023-08-20T01:32:34;21.20;99.90
16479;DHT22;8350;52.316;10.530;2023-08-20T01:35:02;21.20;99.90
16479;DHT22;8350;52.316;10.530;2023-08-20T01:37:29;21.20;99.90
16479;DHT22;8350;52.316;10.530;2023-08-20T01:39:57;21.10;99.90
16479;DHT22;8350;52.316;10.530;2023-08-20T01:42:24;21.10;99.90
16479;DHT22;8350;52.316;10.530;2023-08-20T01:44:51;21.10;99.90
16479;DHT22;8350;52.316;10.530;2023-08-20T01:47:23;21.10;99.90
16479;DHT22;8350;52.316;10.530;2023-08-20T01:49:50;21.10;99.90
16479;DHT22;8350;52.316;10.530;2023-08-20T01:52:17;21.10;99.90
16479;DHT22;8350;52.316;10.530;2023-08-20T01:54:44;21.10;99.90
16479;DHT22;8350;52.316;10.530;2023-08-20T01:57:11;21.10;99.90
16479;DHT22;8350;52.316;10.530;2023-08-20T01:59:39;21.10;99.90
16479;DHT22;8350;52.316;10.530;2023-08-20T02:02:07;21.10;99.90
16479;DHT22;8350;52.316;10.530;2023-08-20T02:04:35;21.00;99.90
16479;DHT22;8350;52.316;10.530;2023-08-20T02:07:02;21.00;99.90
16479;DHT22;8350;52.316;10.530;2023-08-20T02:09:29;21.00;99.90
16479;DHT22;8350;52.316;10.530;2023-08-20T02:11:56;20.90;99.90
16479;DHT22;8350;52.316;10.530;2023-08-20T02:14:22;20.90;99.90
16479;DHT22;8350;52.316;10.530;2023-08-20T02:16:49;20.90;99.90
16479;DHT22;8350;52.316;10.530;2023-08-20T02:19:16;20.90;99.90
16479;DHT22;8350;52.316;10.530;2023-08-20T02:21:45;20.90;99.90
16479;DHT22;8350;52.316;10.530;2023-08-20T02:24:11;20.90;99.90
16479;DHT22;8350;52.316;10.530;2023-08-20T02:26:38;20.80;99.90
16479;DHT22;8350;52.316;10.530;2023-08-20T02:29:05;20.90;99.90
16479;DHT22;8350;52.316;10.530;2023-08-20T02:31:32;20.80;99.90
16479;DHT22;8350;52.316;10.530;2023-08-20T02:33:59;20.80;99.90
16479;DHT22;8350;52.316;10.530;2023-08-20T02:36:26;20.80;99.90
16479;DHT22;8350;52.316;10.530;2023-08-20T02:38:57;20.90;99.90
16479;DHT22;8350;52.316;10.530;2023-08-20T02:41:24;20.80;99.90
16479;DHT22;8350;52.316;10.530;2023-08-20T02:43:51;20.80;99.90
16479;DHT22;8350;52.316;10.530;2023-08-20T02:46:18;20.70;99.90
16479;DHT22;8350;52.316;10.530;2023-08-20T02:48:47;20.80;99.90
16479;DHT22;8350;52.316;10.530;2023-08-20T02:51:14;20.80;99.90
16479;DHT22;8350;52.316;10.530;2023-08-20T02:53:41;20.70;99.90
16479;DHT22;8350;52.316;10.530;2023-08-20T02:56:10;20.70;99.90
16479;DHT22;8350;52.316;10.530;2023-08-20T02:58:37;20.70;99.90
16479;DHT22;8350;52.316;10.530;2023-08-20T03:01:04;20.60;99.90
16479;DHT22;8350;52.316;10.530;2023-08-20T03:03:32;20.60;99.90
16479;DHT22;8350;52.316;10.530;2023-08-20T03:05:58;20.50;99.90
16479;DHT22;8350;52.316;10.530;2023-08-20T03:08:25;20.50;99.90
16479;DHT22;8350;52.316;10.530;2023-08-20T03:10:55;20.40;99.90
16479;DHT22;8350;52.316;10.530;2023-08-20T03:13:24;20.40;99.90
16479;DHT22;8350;52.316;10.530;2023-08-20T03:15:50;20.40;99.90
16479;DHT22;8350;52.316;10.530;2023-08-20T03:18:17;20.50;99.90
16479;DHT22;8350;52.316;10.530;2023-08-20T03:20:44;20.50;99.90
16479;DHT22;8350;52.316;10.530;2023-08-20T03:23:11;20.40;99.90
16479;DHT22;8350;52.316;10.530;2023-08-20T03:25:38;20.40;99.90
16479;DHT22;8350;52.316;10.530;2023-08-20T03:28:05;20.40;99.90
16479;DHT22;8350;52.316;10.530;2023-08-20T03:30:34;20.40;99.90
16479;DHT22;8350;52.316;10.530;2023-08-20T03:33:01;20.40;99.90
16479;DHT22;8350;52.316;10.530;2023-08-20T03:35:28;20.40;99.90
16479;DHT22;8350;52.316;10.530;2023-08-20T03:37:54;20.40;99.90
16479;DHT22;8350;52.316;10.530;2023-08-20T03:40:21;20.20;99.90
16479;DHT22;8350;52.316;10.530;2023-08-20T03:42:48;20.20;99.90
16479;DHT22;8350;52.316;10.530;2023-08-20T03:45:15;20.10;99.90
16479;DHT22;8350;52.316;10.530;2023-08-20T03:47:44;20.00;99.90
16479;DHT22;8350;52.316;10.530;2023-08-20T03:50:12;20.00;99.90
16479;DHT22;8350;52.316;10.530;2023-08-20T03:52:39;19.90;99.90
16479;DHT22;8350;52.316;10.530;2023-08-20T03:55:07;19.90;99.90
16479;DHT22;8350;52.316;10.530;2023-08-20T03:57:34;19.90;99.90
16479;DHT22;8350;52.316;10.530;2023-08-20T04:00:01;19.80;99.90
16479;DHT22;8350;52.316;10.530;2023-08-20T04:02:28;19.80;99.90
16479;DHT22;8350;52.316;10.530;2023-08-20T04:04:58;19.80;99.90
16479;DHT22;8350;52.316;10.530;2023-08-20T04:07:25;19.70;99.90
16479;DHT22;8350;52.316;10.530;2023-08-20T04:09:52;19.80;99.90
16479;DHT22;8350;52.316;10.530;2023-08-20T04:12:19;19.90;99.90
16479;DHT22;8350;52.316;10.530;2023-08-20T04:14:48;19.90;99.90
16479;DHT22;8350;52.316;10.530;2023-08-20T04:17:15;19.90;99.90
16479;DHT22;8350;52.316;10.530;2023-08-20T04:19:42;19.90;99.90
16479;DHT22;8350;52.316;10.530;2023-08-20T04:22:10;20.00;99.90
16479;DHT22;8350;52.316;10.530;2023-08-20T04:24:38;20.00;99.90
16479;DHT22;8350;52.316;10.530;2023-08-20T04:27:05;20.00;99.90
16479;DHT22;8350;52.316;10.530;2023-08-20T04:29:33;20.00;99.90
16479;DHT22;8350;52.316;10.530;2023-08-20T04:32:00;20.00;99.90
16479;DHT22;8350;52.316;10.530;2023-08-20T04:34:27;20.00;99.90
16479;DHT22;8350;52.316;10.530;2023-08-20T04:36:54;20.00;99.90
16479;DHT22;8350;52.316;10.530;2023-08-20T04:39:22;20.00;99.90
16479;DHT22;8350;52.316;10.530;2023-08-20T04:41:49;20.10;99.90
16479;DHT22;8350;52.316;10.530;2023-08-20T04:44:15;20.10;99.90
16479;DHT22;8350;52.316;10.530;2023-08-20T04:46:42;20.10;99.90
16479;DHT22;8350;52.316;10.530;2023-08-20T04:49:09;20.10;99.90
16479;DHT22;8350;52.316;10.530;2023-08-20T04:51:36;20.10;99.90
16479;DHT22;8350;52.316;10.530;2023-08-20T04:54:11;20.20;99.90
16479;DHT22;8350;52.316;10.530;2023-08-20T04:56:39;20.20;99.90
16479;DHT22;8350;52.316;10.530;2023-08-20T04:59:06;20.10;99.90
16479;DHT22;8350;52.316;10.530;2023-08-20T05:01:33;20.10;99.90
16479;DHT22;8350;52.316;10.530;2023-08-20T05:04:00;20.20;99.90
16479;DHT22;8350;52.316;10.530;2023-08-20T05:06:26;20.30;99.90
16479;DHT22;8350;52.316;10.530;2023-08-20T05:08:53;20.40;99.90
16479;DHT22;8350;52.316;10.530;2023-08-20T05:11:23;20.50;99.90
16479;DHT22;8350;52.316;10.530;2023-08-20T05:13:55;20.60;99.90
16479;DHT22;8350;52.316;10.530;2023-08-20T05:16:22;20.90;99.90
16479;DHT22;8350;52.316;10.530;2023-08-20T05:18:48;21.40;99.90
16479;DHT22;8350;52.316;10.530;2023-08-20T05:21:15;21.60;99.90
16479;DHT22;8350;52.316;10.530;2023-08-20T05:23:42;21.70;99.90
16479;DHT22;8350;52.316;10.530;2023-08-20T05:26:10;22.20;99.90
16479;DHT22;8350;52.316;10.530;2023-08-20T05:28:37;22.80;99.90
16479;DHT22;8350;52.316;10.530;2023-08-20T05:31:05;23.10;99.90
16479;DHT22;8350;52.316;10.530;2023-08-20T05:33:32;23.50;99.90
16479;DHT22;8350;52.316;10.530;2023-08-20T05:35:59;24.00;99.90
16479;DHT22;8350;52.316;10.530;2023-08-20T05:38:26;24.60;99.90
16479;DHT22;8350;52.316;10.530;2023-08-20T05:40:53;25.30;99.90
16479;DHT22;8350;52.316;10.530;2023-08-20T05:43:20;25.90;99.90
16479;DHT22;8350;52.316;10.530;2023-08-20T05:45:47;26.30;99.90
16479;DHT22;8350;52.316;10.530;2023-08-20T05:48:15;26.40;99.90
16479;DHT22;8350;52.316;10.530;2023-08-20T05:50:42;26.80;99.90
16479;DHT22;8350;52.316;10.530;2023-08-20T05:53:09;26.80;99.90
16479;DHT22;8350;52.316;10.530;2023-08-20T05:55:36;27.20;99.90
16479;DHT22;8350;52.316;10.530;2023-08-20T05:58:03;27.50;99.90
16479;DHT22;8350;52.316;10.530;2023-08-20T06:00:30;27.00;99.90
16479;DHT22;8350;52.316;10.530;2023-08-20T06:02:57;26.50;99.90
16479;DHT22;8350;52.316;10.530;2023-08-20T06:05:25;26.00;99.90
16479;DHT22;8350;52.316;10.530;2023-08-20T06:07:52;26.00;99.90
16479;DHT22;8350;52.316;10.530;2023-08-20T06:10:19;26.00;99.90
16479;DHT22;8350;52.316;10.530;2023-08-20T06:12:46;25.40;99.90
16479;DHT22;8350;52.316;10.530;2023-08-20T06:15:13;24.80;99.90
16479;DHT22;8350;52.316;10.530;2023-08-20T06:17:54;24.40;99.90
16479;DHT22;8350;52.316;10.530;2023-08-20T06:20:21;23.70;99.90
16479;DHT22;8350;52.316;10.530;2023-08-20T06:22:49;23.40;99.90
16479;DHT22;8350;52.316;10.530;2023-08-20T06:25:16;23.40;99.90
16479;DHT22;8350;52.316;10.530;2023-08-20T06:27:43;23.80;99.90
16479;DHT22;8350;52.316;10.530;2023-08-20T06:30:13;24.20;99.90
16479;DHT22;8350;52.316;10.530;2023-08-20T06:32:41;24.50;99.90
16479;DHT22;8350;52.316;10.530;2023-08-20T06:35:08;24.40;99.90
16479;DHT22;8350;52.316;10.530;2023-08-20T06:37:36;24.50;99.90
16479;DHT22;8350;52.316;10.530;2023-08-20T06:40:05;24.90;99.90
16479;DHT22;8350;52.316;10.530;2023-08-20T06:42:32;25.20;99.90
16479;DHT22;8350;52.316;10.530;2023-08-20T06:44:59;25.40;99.90
16479;DHT22;8350;52.316;10.530;2023-08-20T06:47:29;25.60;99.90
16479;DHT22;8350;52.316;10.530;2023-08-20T06:49:56;25.60;99.90
16479;DHT22;8350;52.316;10.530;2023-08-20T06:52:23;25.60;99.90
16479;DHT22;8350;52.316;10.530;2023-08-20T06:54:50;25.40;99.90
16479;DHT22;8350;52.316;10.530;2023-08-20T06:57:19;25.30;99.90
16479;DHT22;8350;52.316;10.530;2023-08-20T06:59:56;25.30;99.90
16479;DHT22;8350;52.316;10.530;2023-08-20T07:02:22;25.40;99.90
16479;DHT22;8350;52.316;10.530;2023-08-20T07:04:49;25.40;99.90
16479;DHT22;8350;52.316;10.530;2023-08-20T07:07:16;25.40;99.90
16479;DHT22;8350;52.316;10.530;2023-08-20T07:09:43;25.50;99.90
16479;DHT22;8350;52.316;10.530;2023-08-20T07:12:10;25.60;99.90
16479;DHT22;8350;52.316;10.530;2023-08-20T07:14:39;25.80;99.90
16479;DHT22;8350;52.316;10.530;2023-08-20T07:17:08;25.90;99.90
16479;DHT22;8350;52.316;10.530;2023-08-20T07:19:37;26.10;99.90
16479;DHT22;8350;52.316;10.530;2023-08-20T07:22:04;26.20;99.90
16479;DHT22;8350;52.316;10.530;2023-08-20T07:24:31;26.20;99.90
16479;DHT22;8350;52.316;10.530;2023-08-20T07:27:03;26.40;99.90
16479;DHT22;8350;52.316;10.530;2023-08-20T07:29:36;26.40;99.90
16479;DHT22;8350;52.316;10.530;2023-08-20T07:32:07;26.60;99.90
16479;DHT22;8350;52.316;10.530;2023-08-20T07:34:34;26.90;99.90
16479;DHT22;8350;52.316;10.530;2023-08-20T07:37:01;26.90;99.90
16479;DHT22;8350;52.316;10.530;2023-08-20T07:39:28;27.10;99.90
16479;DHT22;8350;52.316;10.530;2023-08-20T07:41:55;27.10;99.90
16479;DHT22;8350;52.316;10.530;2023-08-20T07:44:22;27.10;99.90
16479;DHT22;8350;52.316;10.530;2023-08-20T07:46:49;27.30;99.90
16479;DHT22;8350;52.316;10.530;2023-08-20T07:49:17;27.20;99.90
16479;DHT22;8350;52.316;10.530;2023-08-20T07:51:44;27.20;99.90
16479;DHT22;8350;52.316;10.530;2023-08-20T07:54:11;27.20;99.90
16479;DHT22;8350;52.316;10.530;2023-08-20T07:56:38;27.50;99.90
16479;DHT22;8350;52.316;10.530;2023-08-20T07:59:05;27.60;99.90
16479;DHT22;8350;52.316;10.530;2023-08-20T08:01:32;27.60;99.90
16479;DHT22;8350;52.316;10.530;2023-08-20T08:03:59;27.70;99.90
16479;DHT22;8350;52.316;10.530;2023-08-20T08:06:27;27.70;99.90
16479;DHT22;8350;52.316;10.530;2023-08-20T08:08:54;27.70;99.90
16479;DHT22;8350;52.316;10.530;2023-08-20T08:11:21;27.80;99.90
16479;DHT22;8350;52.316;10.530;2023-08-20T08:13:48;27.80;99.90
16479;DHT22;8350;52.316;10.530;2023-08-20T08:16:15;27.90;99.90
16479;DHT22;8350;52.316;10.530;2023-08-20T08:18:42;27.90;99.90
16479;DHT22;8350;52.316;10.530;2023-08-20T08:21:09;28.10;99.90
16479;DHT22;8350;52.316;10.530;2023-08-20T08:23:37;28.10;99.90
16479;DHT22;8350;52.316;10.530;2023-08-20T08:26:04;28.30;99.90
16479;DHT22;8350;52.316;10.530;2023-08-20T08:28:31;28.30;99.90
16479;DHT22;8350;52.316;10.530;2023-08-20T08:30:58;28.10;99.90
16479;DHT22;8350;52.316;10.530;2023-08-20T08:33:24;28.30;99.90
16479;DHT22;8350;52.316;10.530;2023-08-20T08:35:52;28.30;99.90
16479;DHT22;8350;52.316;10.530;2023-08-20T08:38:18;27.90;99.90
16479;DHT22;8350;52.316;10.530;2023-08-20T08:40:47;27.80;99.90
16479;DHT22;8350;52.316;10.530;2023-08-20T08:43:15;27.60;99.90
16479;DHT22;8350;52.316;10.530;2023-08-20T08:45:45;27.90;99.90
16479;DHT22;8350;52.316;10.530;2023-08-20T08:48:13;28.10;99.90
16479;DHT22;8350;52.316;10.530;2023-08-20T08:50:40;28.40;99.90
16479;DHT22;8350;52.316;10.530;2023-08-20T08:53:08;28.60;99.90
16479;DHT22;8350;52.316;10.530;2023-08-20T08:55:35;28.60;99.90
16479;DHT22;8350;52.316;10.530;2023-08-20T08:58:04;28.70;99.90
16479;DHT22;8350;52.316;10.530;2023-08-20T09:00:31;28.80;99.90
16479;DHT22;8350;52.316;10.530;2023-08-20T09:02:58;28.50;99.90
16479;DHT22;8350;52.316;10.530;2023-08-20T09:05:26;28.10;99.90
16479;DHT22;8350;52.316;10.530;2023-08-20T09:07:56;28.30;99.90
16479;DHT22;8350;52.316;10.530;2023-08-20T09:10:28;28.60;99.90
16479;DHT22;8350;52.316;10.530;2023-08-20T09:12:56;28.90;99.90
16479;DHT22;8350;52.316;10.530;2023-08-20T09:15:32;29.10;99.90
16479;DHT22;8350;52.316;10.530;2023-08-20T09:18:01;29.40;99.90
16479;DHT22;8350;52.316;10.530;2023-08-20T09:20:36;29.60;99.90
16479;DHT22;8350;52.316;10.530;2023-08-20T09:23:03;29.70;99.90
16479;DHT22;8350;52.316;10.530;2023-08-20T09:25:32;29.70;99.90
16479;DHT22;8350;52.316;10.530;2023-08-20T09:28:02;29.80;99.90
16479;DHT22;8350;52.316;10.530;2023-08-20T09:30:31;29.90;99.90
16479;DHT22;8350;52.316;10.530;2023-08-20T09:33:05;30.00;99.90
16479;DHT22;8350;52.316;10.530;2023-08-20T09:35:32;29.90;99.90
16479;DHT22;8350;52.316;10.530;2023-08-20T09:37:59;29.90;99.90
16479;DHT22;8350;52.316;10.530;2023-08-20T09:40:27;29.50;99.90
16479;DHT22;8350;52.316;10.530;2023-08-20T09:42:54;28.90;99.90
16479;DHT22;8350;52.316;10.530;2023-08-20T09:45:24;29.10;99.90
16479;DHT22;8350;52.316;10.530;2023-08-20T09:47:55;29.00;99.90
16479;DHT22;8350;52.316;10.530;2023-08-20T09:50:23;29.20;99.90
16479;DHT22;8350;52.316;10.530;2023-08-20T09:52:57;29.00;99.90
16479;DHT22;8350;52.316;10.530;2023-08-20T09:55:30;29.30;99.90
16479;DHT22;8350;52.316;10.530;2023-08-20T09:58:02;29.30;99.90
16479;DHT22;8350;52.316;10.530;2023-08-20T10:00:30;29.20;99.90
16479;DHT22;8350;52.316;10.530;2023-08-20T10:02:59;29.30;99.90
16479;DHT22;8350;52.316;10.530;2023-08-20T10:05:29;29.30;99.90
16479;DHT22;8350;52.316;10.530;2023-08-20T10:08:02;29.50;99.90
16479;DHT22;8350;52.316;10.530;2023-08-20T10:10:33;29.70;99.90
16479;DHT22;8350;52.316;10.530;2023-08-20T10:13:01;29.70;99.90
16479;DHT22;8350;52.316;10.530;2023-08-20T10:15:29;29.80;99.90
16479;DHT22;8350;52.316;10.530;2023-08-20T10:17:59;29.80;99.90
16479;DHT22;8350;52.316;10.530;2023-08-20T10:20:28;29.40;99.90
16479;DHT22;8350;52.316;10.530;2023-08-20T10:23:00;29.30;99.90
16479;DHT22;8350;52.316;10.530;2023-08-20T10:25:27;29.40;99.90
16479;DHT22;8350;52.316;10.530;2023-08-20T10:27:57;29.80;99.90
16479;DHT22;8350;52.316;10.530;2023-08-20T10:31:06;29.90;99.90
16479;DHT22;8350;52.316;10.530;2023-08-20T10:33:48;29.30;99.90
16479;DHT22;8350;52.316;10.530;2023-08-20T10:36:18;29.30;99.90
16479;DHT22;8350;52.316;10.530;2023-08-20T10:38:49;29.50;99.90
16479;DHT22;8350;52.316;10.530;2023-08-20T10:41:24;29.50;99.90
16479;DHT22;8350;52.316;10.530;2023-08-20T10:43:52;29.30;99.90
16479;DHT22;8350;52.316;10.530;2023-08-20T10:46:20;28.90;99.90
16479;DHT22;8350;52.316;10.530;2023-08-20T10:48:51;29.00;99.90
16479;DHT22;8350;52.316;10.530;2023-08-20T10:51:26;28.80;99.90
16479;DHT22;8350;52.316;10.530;2023-08-20T10:54:05;28.80;99.90
16479;DHT22;8350;52.316;10.530;2023-08-20T10:56:39;28.90;99.90
16479;DHT22;8350;52.316;10.530;2023-08-20T10:59:08;28.90;99.90
16479;DHT22;8350;52.316;10.530;2023-08-20T11:01:35;29.10;99.90
16479;DHT22;8350;52.316;10.530;2023-08-20T11:04:04;28.90;99.90
16479;DHT22;8350;52.316;10.530;2023-08-20T11:06:33;28.50;99.90
16479;DHT22;8350;52.316;10.530;2023-08-20T11:09:00;28.60;99.90
16479;DHT22;8350;52.316;10.530;2023-08-20T11:11:30;29.10;99.90
16479;DHT22;8350;52.316;10.530;2023-08-20T11:14:03;29.40;99.90
16479;DHT22;8350;52.316;10.530;2023-08-20T11:16:34;29.40;99.90
16479;DHT22;8350;52.316;10.530;2023-08-20T11:19:03;29.10;99.90
16479;DHT22;8350;52.316;10.530;2023-08-20T11:21:34;29.10;99.90
16479;DHT22;8350;52.316;10.530;2023-08-20T11:24:01;29.10;99.90
16479;DHT22;8350;52.316;10.530;2023-08-20T11:26:28;29.20;99.90
16479;DHT22;8350;52.316;10.530;2023-08-20T11:28:56;29.50;99.90
16479;DHT22;8350;52.316;10.530;2023-08-20T11:31:23;30.00;99.90
16479;DHT22;8350;52.316;10.530;2023-08-20T11:33:50;30.50;99.90
16479;DHT22;8350;52.316;10.530;2023-08-20T11:36:21;30.40;99.90
16479;DHT22;8350;52.316;10.530;2023-08-20T11:38:50;30.80;99.90
16479;DHT22;8350;52.316;10.530;2023-08-20T11:41:18;30.50;99.90
16479;DHT22;8350;52.316;10.530;2023-08-20T11:43:45;30.10;99.90
16479;DHT22;8350;52.316;10.530;2023-08-20T11:46:13;29.80;99.90
16479;DHT22;8350;52.316;10.530;2023-08-20T11:48:58;29.90;99.90
16479;DHT22;8350;52.316;10.530;2023-08-20T11:51:27;29.70;99.90
16479;DHT22;8350;52.316;10.530;2023-08-20T11:53:55;29.70;99.90
16479;DHT22;8350;52.316;10.530;2023-08-20T11:56:22;29.70;99.90
16479;DHT22;8350;52.316;10.530;2023-08-20T11:58:50;29.60;99.90
16479;DHT22;8350;52.316;10.530;2023-08-20T12:01:17;29.70;99.90
16479;DHT22;8350;52.316;10.530;2023-08-20T12:03:44;29.40;99.90
16479;DHT22;8350;52.316;10.530;2023-08-20T12:06:19;29.00;99.90
16479;DHT22;8350;52.316;10.530;2023-08-20T12:08:47;28.90;99.90
16479;DHT22;8350;52.316;10.530;2023-08-20T12:11:14;28.90;99.90
16479;DHT22;8350;52.316;10.530;2023-08-20T12:13:41;29.10;99.90
16479;DHT22;8350;52.316;10.530;2023-08-20T12:16:09;29.30;99.90
16479;DHT22;8350;52.316;10.530;2023-08-20T12:18:36;29.40;99.90
16479;DHT22;8350;52.316;10.530;2023-08-20T12:21:03;29.30;99.90
16479;DHT22;8350;52.316;10.530;2023-08-20T12:23:30;29.60;99.90
16479;DHT22;8350;52.316;10.530;2023-08-20T12:25:58;29.70;99.90
16479;DHT22;8350;52.316;10.530;2023-08-20T12:28:25;29.90;99.90
16479;DHT22;8350;52.316;10.530;2023-08-20T12:30:52;30.20;99.90
16479;DHT22;8350;52.316;10.530;2023-08-20T12:33:19;30.40;99.90
16479;DHT22;8350;52.316;10.530;2023-08-20T12:35:47;30.50;99.90
16479;DHT22;8350;52.316;10.530;2023-08-20T12:38:15;30.80;99.90
16479;DHT22;8350;52.316;10.530;2023-08-20T12:40:42;30.30;99.90
16479;DHT22;8350;52.316;10.530;2023-08-20T12:43:10;30.50;99.90
16479;DHT22;8350;52.316;10.530;2023-08-20T12:45:37;30.70;99.90
16479;DHT22;8350;52.316;10.530;2023-08-20T12:48:05;30.50;99.90
16479;DHT22;8350;52.316;10.530;2023-08-20T12:50:32;30.60;99.90
16479;DHT22;8350;52.316;10.530;2023-08-20T12:53:00;30.50;99.90
16479;DHT22;8350;52.316;10.530;2023-08-20T12:55:29;30.50;99.90
16479;DHT22;8350;52.316;10.530;2023-08-20T12:57:57;30.70;99.90
16479;DHT22;8350;52.316;10.530;2023-08-20T13:00:26;30.60;99.90
16479;DHT22;8350;52.316;10.530;2023-08-20T13:02:54;30.80;99.90
16479;DHT22;8350;52.316;10.530;2023-08-20T13:05:22;30.70;99.90
16479;DHT22;8350;52.316;10.530;2023-08-20T13:07:50;30.60;99.90
16479;DHT22;8350;52.316;10.530;2023-08-20T13:10:18;30.60;99.90
16479;DHT22;8350;52.316;10.530;2023-08-20T13:12:48;30.30;99.90
16479;DHT22;8350;52.316;10.530;2023-08-20T13:15:16;30.40;99.90
16479;DHT22;8350;52.316;10.530;2023-08-20T13:17:47;30.40;99.90
16479;DHT22;8350;52.316;10.530;2023-08-20T13:20:14;30.40;99.90
16479;DHT22;8350;52.316;10.530;2023-08-20T13:22:46;30.20;99.90
16479;DHT22;8350;52.316;10.530;2023-08-20T13:25:13;30.00;99.90
16479;DHT22;8350;52.316;10.530;2023-08-20T13:27:40;30.30;99.90
16479;DHT22;8350;52.316;10.530;2023-08-20T13:30:16;30.00;99.90
16479;DHT22;8350;52.316;10.530;2023-08-20T13:32:48;30.00;99.90
16479;DHT22;8350;52.316;10.530;2023-08-20T13:35:15;30.00;99.90
16479;DHT22;8350;52.316;10.530;2023-08-20T13:37:43;30.30;99.90
16479;DHT22;8350;52.316;10.530;2023-08-20T13:40:11;30.30;99.90
16479;DHT22;8350;52.316;10.530;2023-08-20T13:42:39;30.10;99.90
16479;DHT22;8350;52.316;10.530;2023-08-20T13:45:07;30.10;99.90
16479;DHT22;8350;52.316;10.530;2023-08-20T13:47:34;30.10;99.90
16479;DHT22;8350;52.316;10.530;2023-08-20T13:50:03;30.30;99.90
16479;DHT22;8350;52.316;10.530;2023-08-20T13:52:30;30.30;99.90
16479;DHT22;8350;52.316;10.530;2023-08-20T13:54:57;30.00;99.90
16479;DHT22;8350;52.316;10.530;2023-08-20T13:57:24;29.90;99.90
16479;DHT22;8350;52.316;10.530;2023-08-20T13:59:52;29.80;99.90
16479;DHT22;8350;52.316;10.530;2023-08-20T14:02:19;29.70;99.90
16479;DHT22;8350;52.316;10.530;2023-08-20T14:04:56;29.70;99.90
16479;DHT22;8350;52.316;10.530;2023-08-20T14:07:24;29.80;99.90
16479;DHT22;8350;52.316;10.530;2023-08-20T14:09:53;29.80;99.90
16479;DHT22;8350;52.316;10.530;2023-08-20T14:12:20;29.90;99.90
16479;DHT22;8350;52.316;10.530;2023-08-20T14:14:47;30.10;99.90
16479;DHT22;8350;52.316;10.530;2023-08-20T14:17:15;30.30;99.90
16479;DHT22;8350;52.316;10.530;2023-08-20T14:19:42;30.50;99.90
16479;DHT22;8350;52.316;10.530;2023-08-20T14:22:09;30.60;99.90
16479;DHT22;8350;52.316;10.530;2023-08-20T14:24:37;30.40;99.90
16479;DHT22;8350;52.316;10.530;2023-08-20T14:27:04;30.50;99.90
16479;DHT22;8350;52.316;10.530;2023-08-20T14:29:33;30.60;99.90
16479;DHT22;8350;52.316;10.530;2023-08-20T14:32:00;30.70;99.90
16479;DHT22;8350;52.316;10.530;2023-08-20T14:34:27;31.00;99.90
16479;DHT22;8350;52.316;10.530;2023-08-20T14:36:53;31.00;99.90
16479;DHT22;8350;52.316;10.530;2023-08-20T14:39:20;30.90;99.90
16479;DHT22;8350;52.316;10.530;2023-08-20T14:41:49;31.00;99.90
16479;DHT22;8350;52.316;10.530;2023-08-20T14:44:16;30.70;99.90
16479;DHT22;8350;52.316;10.530;2023-08-20T14:46:43;30.50;99.90
16479;DHT22;8350;52.316;10.530;2023-08-20T14:49:10;30.30;99.90
16479;DHT22;8350;52.316;10.530;2023-08-20T14:51:37;30.10;99.90
16479;DHT22;8350;52.316;10.530;2023-08-20T14:54:04;30.10;99.90
16479;DHT22;8350;52.316;10.530;2023-08-20T14:56:31;29.90;99.90
16479;DHT22;8350;52.316;10.530;2023-08-20T14:59:00;30.00;99.90
16479;DHT22;8350;52.316;10.530;2023-08-20T15:01:27;29.80;99.90
16479;DHT22;8350;52.316;10.530;2023-08-20T15:03:54;29.90;99.90
16479;DHT22;8350;52.316;10.530;2023-08-20T15:06:26;30.00;99.90
16479;DHT22;8350;52.316;10.530;2023-08-20T15:08:53;29.80;99.90
16479;DHT22;8350;52.316;10.530;2023-08-20T15:11:20;29.80;99.90
16479;DHT22;8350;52.316;10.530;2023-08-20T15:13:47;29.90;99.90
16479;DHT22;8350;52.316;10.530;2023-08-20T15:16:15;29.90;99.90
16479;DHT22;8350;52.316;10.530;2023-08-20T15:18:42;29.80;99.90
16479;DHT22;8350;52.316;10.530;2023-08-20T15:21:09;29.60;99.90
16479;DHT22;8350;52.316;10.530;2023-08-20T15:23:36;29.30;99.90
16479;DHT22;8350;52.316;10.530;2023-08-20T15:26:03;29.10;99.90
16479;DHT22;8350;52.316;10.530;2023-08-20T15:28:30;29.10;99.90
16479;DHT22;8350;52.316;10.530;2023-08-20T15:30:58;29.10;99.90
16479;DHT22;8350;52.316;10.530;2023-08-20T15:33:27;29.00;99.90
16479;DHT22;8350;52.316;10.530;2023-08-20T15:35:57;29.10;99.90
16479;DHT22;8350;52.316;10.530;2023-08-20T15:38:24;29.10;99.90